Time;durP1;ratioP1;P1;durP2;ratioP2;P2;SDS_P1;SDS_P2;PMS_P1;PMS_P2;Temp;Humidity;BMP_temperature;BMP_pressure;BME280_temperature;BME280_humidity;BME280_pressure;Samples;Min_cycle;Max_cycle;Signal;HPM_P1;HPM_P2
2022/08/19 00:00:29;;;;;;;10.13;5.72;;;15.10;99.90;;;;;;5092565;27;20047;-88
2022/08/19 00:02:55;;;;;;;5.85;5.05;;;15.00;99.90;;;;;;5091751;27;20419;-88
2022/08/19 00:05:22;;;;;;;11.32;6.47;;;15.10;99.90;;;;;;5058510;27;20039;-89
2022/08/19 00:07:49;;;;;;;9.73;7.22;;;15.10;99.90;;;;;;5075505;27;20196;-89
2022/08/19 00:10:16;;;;;;;12.80;6.80;;;15.10;99.90;;;;;;5109093;27;20047;-89
2022/08/19 00:12:42;;;;;;;9.38;5.70;;;15.10;99.90;;;;;;5093696;27;20119;-87
2022/08/19 00:15:12;;;;;;;10.05;6.90;;;15.10;99.90;;;;;;5092338;27;20039;-89
2022/08/19 00:17:39;;;;;;;6.93;6.03;;;15.00;99.90;;;;;;5110161;27;20088;-89
2022/08/19 00:20:06;;;;;;;6.45;5.05;;;15.00;99.90;;;;;;5108428;27;20039;-88
2022/08/19 00:22:33;;;;;;;7.15;4.82;;;15.00;99.90;;;;;;5075170;27;20054;-89
2022/08/19 00:24:58;;;;;;;7.50;5.43;;;15.00;99.90;;;;;;5075194;27;20043;-89
2022/08/19 00:27:24;;;;;;;6.25;5.30;;;15.00;99.90;;;;;;5074508;27;20049;-88
2022/08/19 00:29:50;;;;;;;11.77;5.72;;;15.20;99.90;;;;;;5075240;27;20139;-88
2022/08/19 00:32:16;;;;;;;7.82;5.45;;;14.90;99.90;;;;;;5091071;27;20039;-88
2022/08/19 00:34:41;;;;;;;6.50;5.45;;;14.90;99.90;;;;;;5092015;28;20464;-89
2022/08/19 00:37:07;;;;;;;11.20;5.45;;;14.90;99.90;;;;;;5091440;28;20047;-88
2022/08/19 00:39:33;;;;;;;9.63;5.95;;;14.90;99.90;;;;;;5091776;28;20139;-89
2022/08/19 00:41:58;;;;;;;9.50;6.15;;;14.90;99.90;;;;;;5108408;28;20516;-89
2022/08/19 00:44:28;;;;;;;7.90;5.30;;;15.10;99.90;;;;;;5091559;28;20054;-88
2022/08/19 00:46:55;;;;;;;7.43;5.15;;;14.80;99.90;;;;;;5092078;28;20046;-88
2022/08/19 00:49:33;;;;;;;9.90;6.00;;;14.80;99.90;;;;;;5090786;28;20375;-88
2022/08/19 00:52:04;;;;;;;9.23;5.75;;;14.80;99.90;;;;;;5091283;28;20058;-88
2022/08/19 00:54:31;;;;;;;10.13;5.20;;;14.80;99.90;;;;;;5108005;28;20047;-89
2022/08/19 00:56:58;;;;;;;6.75;5.65;;;14.80;99.90;;;;;;5074808;28;20089;-88
2022/08/19 00:59:25;;;;;;;5.85;4.93;;;14.80;99.90;;;;;;5075853;27;20050;-89
2022/08/19 01:01:51;;;;;;;5.40;3.95;;;15.20;99.90;;;;;;5077993;27;20078;-88
2022/08/19 01:04:16;;;;;;;10.38;6.10;;;14.80;99.90;;;;;;5112666;27;20079;-88
2022/08/19 01:06:42;;;;;;;12.88;6.20;;;14.90;99.90;;;;;;5077708;27;20039;-88
2022/08/19 01:09:09;;;;;;;11.30;5.50;;;14.70;99.90;;;;;;5077918;27;20047;-88
2022/08/19 01:11:39;;;;;;;12.30;5.68;;;15.30;99.90;;;;;;5095125;27;20043;-88
2022/08/19 01:14:06;;;;;;;8.30;6.30;;;15.20;99.90;;;;;;5112091;27;20042;-89
2022/08/19 01:16:34;;;;;;;6.60;5.95;;;14.60;99.90;;;;;;5095270;27;20490;-89
2022/08/19 01:19:01;;;;;;;8.60;6.13;;;14.60;99.90;;;;;;5061136;27;20208;-88
2022/08/19 01:21:34;;;;;;;20.83;6.43;;;15.10;99.90;;;;;;5094686;27;20047;-88
2022/08/19 01:24:00;;;;;;;10.45;6.10;;;14.50;99.90;;;;;;5111180;27;20062;-88
2022/08/19 01:26:26;;;;;;;10.60;6.18;;;15.10;99.90;;;;;;5094747;27;20050;-88
2022/08/19 01:28:56;;;;;;;8.70;5.90;;;14.50;99.90;;;;;;5111603;27;20042;-88
2022/08/19 01:31:25;;;;;;;9.45;6.60;;;14.90;99.90;;;;;;5111851;27;20104;-87
2022/08/19 01:33:53;;;;;;;10.32;7.47;;;14.60;99.90;;;;;;5095617;27;20382;-88
2022/08/19 01:36:29;;;;;;;7.78;6.22;;;14.50;99.90;;;;;;5110606;27;20575;-87
2022/08/19 01:38:55;;;;;;;12.15;5.68;;;14.70;99.90;;;;;;5111682;27;20050;-88
2022/08/19 01:41:22;;;;;;;8.73;5.80;;;14.40;99.90;;;;;;5111784;27;20494;-88
2022/08/19 01:43:49;;;;;;;12.27;5.57;;;14.40;99.90;;;;;;5094842;27;20118;-87
2022/08/19 01:46:14;;;;;;;7.13;5.50;;;14.40;99.90;;;;;;5095124;27;20129;-88
2022/08/19 01:48:43;;;;;;;6.53;5.20;;;14.40;99.90;;;;;;5076414;27;20520;-87
2022/08/19 01:51:10;;;;;;;8.20;5.15;;;14.30;99.90;;;;;;5094977;27;20540;-88
2022/08/19 01:53:36;;;;;;;12.80;6.10;;;14.30;99.90;;;;;;5094091;27;20042;-88
2022/08/19 01:56:03;;;;;;;5.78;5.07;;;14.30;99.90;;;;;;5094462;27;20043;-89
2022/08/19 01:58:35;;;;;;;7.10;5.63;;;14.30;99.90;;;;;;5094754;27;20394;-87
2022/08/19 02:01:02;;;;;;;10.82;6.07;;;14.20;99.90;;;;;;5094245;27;20045;-88
2022/08/19 02:03:28;;;;;;;6.75;5.20;;;14.50;99.90;;;;;;5111228;27;20045;-87
2022/08/19 02:06:00;;;;;;;10.07;5.35;;;14.30;99.90;;;;;;5093581;27;20039;-88
2022/08/19 02:08:35;;;;;;;11.15;5.28;;;14.20;99.90;;;;;;5111229;27;20035;-88
2022/08/19 02:11:00;;;;;;;9.40;6.50;;;14.20;99.90;;;;;;5110077;27;20766;-88
2022/08/19 02:13:27;;;;;;;14.38;7.68;;;14.20;99.90;;;;;;5110824;27;20035;-88
2022/08/19 02:15:53;;;;;;;11.18;6.32;;;14.20;99.90;;;;;;5076721;27;20129;-88
2022/08/19 02:18:18;;;;;;;14.20;6.68;;;14.30;99.90;;;;;;5093994;27;20502;-88
2022/08/19 02:20:46;;;;;;;10.45;7.43;;;14.30;99.90;;;;;;5111249;27;20050;-90
2022/08/19 02:23:13;;;;;;;8.07;6.65;;;14.30;99.90;;;;;;5110535;27;20525;-88
2022/08/19 02:25:40;;;;;;;14.13;6.93;;;14.30;99.90;;;;;;5094107;27;20099;-88
2022/08/19 02:28:07;;;;;;;10.40;7.65;;;14.30;99.90;;;;;;5093386;27;20584;-88
2022/08/19 02:30:32;;;;;;;7.40;6.55;;;14.30;99.90;;;;;;5076662;27;20050;-89
2022/08/19 02:32:59;;;;;;;10.18;7.28;;;14.40;99.90;;;;;;5093595;27;20043;-88
2022/08/19 02:35:25;;;;;;;10.85;6.82;;;14.40;99.90;;;;;;5093207;27;20047;-89
2022/08/19 02:40:36;;;;;;;11.02;6.65;;;14.80;99.90;;;;;;5109603;27;20490;-88
2022/08/19 02:43:05;;;;;;;13.05;8.73;;;14.40;99.90;;;;;;5076836;27;20043;-88
2022/08/19 02:45:37;;;;;;;12.57;8.57;;;14.40;99.90;;;;;;5093223;27;20035;-88
2022/08/19 02:48:04;;;;;;;13.07;7.95;;;14.40;99.90;;;;;;5093514;27;20039;-88
2022/08/19 02:50:31;;;;;;;14.43;9.00;;;14.40;99.90;;;;;;5093100;27;20047;-88
2022/08/19 02:52:57;;;;;;;13.52;9.02;;;14.60;99.90;;;;;;5092837;27;20085;-90
2022/08/19 02:55:23;;;;;;;12.95;8.82;;;15.20;99.90;;;;;;5076899;27;20083;-89
2022/08/19 02:57:49;;;;;;;13.95;8.90;;;14.50;99.90;;;;;;5109670;27;20125;-88
2022/08/19 03:00:15;;;;;;;12.00;8.55;;;14.90;99.90;;;;;;5093002;27;20504;-89
2022/08/19 03:02:41;;;;;;;14.88;8.57;;;14.60;99.90;;;;;;5110394;27;20441;-88
2022/08/19 03:05:09;;;;;;;10.63;8.95;;;14.70;99.90;;;;;;5092957;27;20462;-88
2022/08/19 03:07:36;;;;;;;12.60;8.88;;;14.70;99.90;;;;;;5110220;27;20479;-88
2022/08/19 03:10:03;;;;;;;17.85;9.55;;;14.80;99.90;;;;;;5092539;27;20044;-88
2022/08/19 03:12:29;;;;;;;16.13;9.30;;;14.80;99.90;;;;;;5093512;27;20125;-88
2022/08/19 03:14:54;;;;;;;11.23;8.55;;;14.80;99.90;;;;;;5075218;27;20251;-89
2022/08/19 03:17:20;;;;;;;11.50;8.60;;;15.00;99.90;;;;;;5093288;27;20074;-89
2022/08/19 03:19:46;;;;;;;14.93;8.43;;;14.80;99.90;;;;;;5092319;27;20103;-88
2022/08/19 03:22:11;;;;;;;10.32;7.15;;;14.80;99.90;;;;;;5109592;27;20039;-88
2022/08/19 03:24:39;;;;;;;11.63;8.10;;;14.80;99.90;;;;;;5091782;27;20050;-89
2022/08/19 03:27:04;;;;;;;12.55;6.65;;;15.70;99.90;;;;;;5092497;27;20035;-88
2022/08/19 03:29:31;;;;;;;12.88;6.47;;;14.80;99.90;;;;;;5076064;27;20038;-88
2022/08/19 03:32:00;;;;;;;13.23;6.68;;;14.80;99.90;;;;;;5108766;27;20081;-88
2022/08/19 03:34:29;;;;;;;8.50;6.32;;;14.30;99.90;;;;;;5092068;27;20101;-89
2022/08/19 03:37:03;;;;;;;14.60;6.80;;;14.90;99.90;;;;;;5109024;27;20055;-88
2022/08/19 03:39:29;;;;;;;10.02;6.10;;;14.70;99.90;;;;;;5109945;27;20043;-89
2022/08/19 03:41:59;;;;;;;9.98;6.10;;;14.70;99.90;;;;;;5109676;27;20104;-88
2022/08/19 03:44:25;;;;;;;11.20;6.38;;;14.80;99.90;;;;;;5092055;27;20045;-88
2022/08/19 03:46:54;;;;;;;14.82;6.25;;;14.70;99.90;;;;;;5109914;27;20042;-88
2022/08/19 03:49:22;;;;;;;10.82;5.22;;;14.80;99.90;;;;;;5108207;27;20050;-88
2022/08/19 03:51:49;;;;;;;8.02;5.88;;;14.70;99.90;;;;;;5092621;27;20414;-90
2022/08/19 03:54:18;;;;;;;8.20;6.10;;;14.90;99.90;;;;;;5092519;27;20379;-88
2022/08/19 03:56:46;;;;;;;7.05;5.40;;;14.80;99.90;;;;;;5091800;27;20486;-88
2022/08/19 03:59:16;;;;;;;8.90;6.07;;;15.10;99.90;;;;;;5109679;27;20047;-88
2022/08/19 04:01:43;;;;;;;6.97;5.35;;;14.70;99.90;;;;;;5108566;27;20046;-88
2022/08/19 04:04:09;;;;;;;7.00;5.28;;;14.70;99.90;;;;;;5092074;27;20070;-88
2022/08/19 04:06:37;;;;;;;12.82;4.50;;;14.60;99.90;;;;;;5108095;27;20035;-88
2022/08/19 04:09:05;;;;;;;8.07;5.30;;;14.60;99.90;;;;;;5109599;27;20473;-89
2022/08/19 04:11:35;;;;;;;5.47;4.93;;;14.60;99.90;;;;;;5091921;27;20069;-89
2022/08/19 04:14:01;;;;;;;7.25;5.68;;;14.60;99.90;;;;;;5109033;27;20050;-88
2022/08/19 04:16:30;;;;;;;8.10;5.13;;;15.30;99.90;;;;;;5092970;27;20376;-88
2022/08/19 04:19:00;;;;;;;8.57;6.25;;;14.50;99.90;;;;;;5091144;27;20043;-88
2022/08/19 04:21:27;;;;;;;7.45;5.45;;;14.50;99.90;;;;;;5091997;27;20046;-89
2022/08/19 04:23:54;;;;;;;7.72;5.85;;;14.60;99.90;;;;;;5108756;27;20122;-88
2022/08/19 04:26:26;;;;;;;12.05;5.95;;;14.50;99.90;;;;;;5109420;28;20494;-88
2022/08/19 04:28:52;;;;;;;13.70;6.88;;;14.70;99.90;;;;;;5110299;27;20043;-87
2022/08/19 04:31:25;;;;;;;11.60;7.13;;;15.00;99.90;;;;;;5095250;27;20260;-88
2022/08/19 04:34:01;;;;;;;10.13;7.45;;;14.60;99.90;;;;;;5097087;27;20134;-89
2022/08/19 04:36:31;;;;;;;12.00;6.88;;;14.70;99.90;;;;;;5112369;27;20059;-88
2022/08/19 04:39:00;;;;;;;9.30;6.85;;;14.70;99.90;;;;;;5093941;28;20039;-89
2022/08/19 04:44:12;;;;;;;11.50;7.07;;;14.90;99.90;;;;;;5097175;28;20047;-88
2022/08/19 04:46:38;;;;;;;10.40;6.55;;;14.90;99.90;;;;;;5096595;28;20399;-88
2022/08/19 04:49:05;;;;;;;15.27;7.53;;;14.90;99.90;;;;;;5094998;28;20546;-88
2022/08/19 04:51:33;;;;;;;10.90;7.28;;;14.90;99.90;;;;;;5093462;28;20489;-89
2022/08/19 04:53:59;;;;;;;11.27;7.15;;;15.00;99.90;;;;;;5075297;28;20422;-88
2022/08/19 04:56:26;;;;;;;12.40;7.40;;;15.00;99.90;;;;;;5091234;28;20039;-88
2022/08/19 04:58:53;;;;;;;11.32;7.53;;;15.00;99.90;;;;;;5109226;28;20518;-89
2022/08/19 05:01:26;;;;;;;10.80;7.43;;;15.30;99.90;;;;;;5090601;28;20047;-88
2022/08/19 05:03:52;;;;;;;12.18;7.53;;;15.00;99.90;;;;;;5108457;28;20116;-89
2022/08/19 05:06:20;;;;;;;11.60;7.57;;;15.10;99.90;;;;;;5090931;28;20070;-89
2022/08/19 05:08:46;;;;;;;9.82;7.18;;;15.10;99.90;;;;;;5091125;28;20027;-88
2022/08/19 05:11:19;;;;;;;11.57;7.47;;;15.10;99.90;;;;;;5074663;28;20039;-88
2022/08/19 05:13:46;;;;;;;11.82;6.47;;;15.90;99.90;;;;;;5108022;28;20280;-89
2022/08/19 05:16:13;;;;;;;17.77;7.47;;;15.70;99.90;;;;;;5074922;28;20039;-89
2022/08/19 05:24:10;;;;;;;9.85;7.07;;;15.50;99.90;;;;;;5108155;27;20084;-89
2022/08/19 05:26:41;;;;;;;11.13;7.60;;;15.50;99.90;;;;;;5091141;28;20050;-89
2022/08/19 05:29:08;;;;;;;11.27;8.07;;;15.60;99.90;;;;;;5092165;28;20103;-89
2022/08/19 05:31:35;;;;;;;17.88;8.25;;;15.60;99.90;;;;;;5092339;28;20035;-88
2022/08/19 05:34:03;;;;;;;15.20;7.63;;;15.70;99.90;;;;;;5108721;28;20125;-88
2022/08/19 05:36:35;;;;;;;10.65;8.10;;;15.80;99.90;;;;;;5106429;28;20060;-89
2022/08/19 05:39:02;;;;;;;11.45;8.05;;;16.50;99.90;;;;;;5108150;28;20043;-91
2022/08/19 05:41:30;;;;;;;17.88;8.00;;;16.00;99.90;;;;;;5091264;28;20063;-89
2022/08/19 05:44:02;;;;;;;12.48;8.70;;;16.10;99.90;;;;;;5105514;28;20048;-89
2022/08/19 05:46:28;;;;;;;10.07;6.13;;;16.20;99.90;;;;;;5106625;28;20130;-89
2022/08/19 05:48:56;;;;;;;13.20;8.73;;;16.30;99.90;;;;;;5091115;28;20561;-89
2022/08/19 05:51:23;;;;;;;8.32;7.15;;;16.70;99.90;;;;;;5108511;28;20126;-89
2022/08/19 05:53:49;;;;;;;13.68;7.95;;;16.40;99.90;;;;;;5107991;28;20043;-88
2022/08/19 05:56:16;;;;;;;13.85;8.05;;;17.20;99.90;;;;;;5090750;28;20635;-90
2022/08/19 05:58:44;;;;;;;15.02;8.25;;;16.60;99.90;;;;;;5108045;28;20036;-88
2022/08/19 06:01:13;;;;;;;12.82;8.80;;;16.70;99.90;;;;;;5107269;28;20075;-88
2022/08/19 06:03:40;;;;;;;17.08;8.20;;;16.80;99.90;;;;;;5091457;28;20142;-89
2022/08/19 06:06:07;;;;;;;11.50;8.32;;;16.90;99.90;;;;;;5107470;28;20096;-89
2022/08/19 06:08:34;;;;;;;12.15;7.90;;;17.00;99.90;;;;;;5090750;28;20096;-88
2022/08/19 06:11:14;;;;;;;11.57;8.23;;;17.00;99.90;;;;;;5090326;28;20047;-89
2022/08/19 06:13:39;;;;;;;14.57;8.25;;;17.30;99.90;;;;;;5107320;28;20097;-89
2022/08/19 06:16:05;;;;;;;10.77;8.77;;;17.20;99.90;;;;;;5091129;28;20043;-89
2022/08/19 06:18:31;;;;;;;12.27;6.88;;;17.30;99.90;;;;;;5073517;28;20044;-89
2022/08/19 06:20:57;;;;;;;10.07;7.38;;;17.50;99.90;;;;;;5073813;28;20509;-90
2022/08/19 06:23:23;;;;;;;13.75;7.30;;;17.50;99.90;;;;;;5073107;28;20043;-89
2022/08/19 06:25:49;;;;;;;10.00;7.47;;;17.60;99.90;;;;;;5090123;28;20096;-89
2022/08/19 06:28:14;;;;;;;13.27;6.97;;;17.70;99.90;;;;;;5057425;28;20036;-90
2022/08/19 06:30:41;;;;;;;11.23;7.05;;;17.70;99.90;;;;;;5107655;28;20491;-88
2022/08/19 06:33:07;;;;;;;8.57;6.05;;;17.80;99.90;;;;;;5090964;28;20081;-88
2022/08/19 06:35:32;;;;;;;7.03;5.90;;;17.90;99.90;;;;;;5086343;28;20582;-90
2022/08/19 06:37:59;;;;;;;8.10;6.28;;;18.00;99.90;;;;;;5070624;28;20052;-89
2022/08/19 06:40:27;;;;;;;9.75;6.40;;;18.10;99.90;;;;;;5069543;28;20487;-90
2022/08/19 06:42:53;;;;;;;10.75;5.93;;;18.20;99.90;;;;;;5071192;28;20047;-88
2022/08/19 06:45:20;;;;;;;10.88;6.80;;;18.30;99.90;;;;;;5070060;28;20396;-89
2022/08/19 06:47:48;;;;;;;16.40;7.55;;;18.40;99.90;;;;;;5053868;28;20459;-91
2022/08/19 06:50:14;;;;;;;11.45;6.38;;;18.50;99.90;;;;;;5070443;28;20040;-89
2022/08/19 06:52:39;;;;;;;10.27;6.88;;;18.60;99.90;;;;;;5069663;28;20043;-90
2022/08/19 06:55:06;;;;;;;8.60;6.38;;;18.60;99.90;;;;;;5037081;28;20052;-89
2022/08/19 06:57:32;;;;;;;9.43;6.32;;;18.70;99.90;;;;;;5069105;28;20433;-89
2022/08/19 06:59:59;;;;;;;7.05;5.60;;;18.80;99.90;;;;;;5070305;28;20036;-90
2022/08/19 07:02:29;;;;;;;9.35;6.07;;;18.90;99.90;;;;;;5070082;28;20105;-90
2022/08/19 07:04:57;;;;;;;7.63;6.00;;;19.00;99.90;;;;;;5070034;28;20115;-90
2022/08/19 07:07:23;;;;;;;11.50;6.03;;;19.00;99.90;;;;;;5070693;28;20123;-90
2022/08/19 07:09:50;;;;;;;7.05;5.68;;;19.10;99.90;;;;;;5069310;28;20100;-92
2022/08/19 07:12:16;;;;;;;9.20;5.68;;;19.20;99.90;;;;;;5069909;28;20079;-91
2022/08/19 07:14:42;;;;;;;12.70;6.82;;;19.30;99.90;;;;;;5086347;28;20068;-90
2022/08/19 07:17:10;;;;;;;8.70;6.30;;;19.40;99.90;;;;;;5069650;28;20153;-91
2022/08/19 07:19:38;;;;;;;10.82;6.35;;;19.50;99.90;;;;;;5086304;28;20040;-91
2022/08/19 07:22:06;;;;;;;8.18;6.00;;;19.60;99.90;;;;;;5086006;28;20044;-89
2022/08/19 07:24:32;;;;;;;8.20;5.72;;;19.60;99.90;;;;;;5069474;28;20435;-90
2022/08/19 07:27:02;;;;;;;8.60;5.50;;;19.30;99.90;;;;;;5086592;28;20055;-89
2022/08/19 07:29:30;;;;;;;8.60;6.05;;;19.90;99.90;;;;;;5069911;28;20071;-89
2022/08/19 07:31:58;;;;;;;12.85;5.60;;;19.90;99.90;;;;;;5069311;28;20055;-90
2022/08/19 07:34:26;;;;;;;6.55;5.40;;;20.10;99.90;;;;;;5086621;28;20454;-90
2022/08/19 07:36:53;;;;;;;8.35;5.60;;;20.20;99.90;;;;;;5105770;28;20051;-91
2022/08/19 07:39:25;;;;;;;11.43;6.32;;;20.30;99.90;;;;;;5107115;28;20449;-91
2022/08/19 07:41:52;;;;;;;11.93;6.63;;;20.40;99.90;;;;;;5107103;28;20039;-89
2022/08/19 07:44:19;;;;;;;10.77;6.80;;;20.30;99.90;;;;;;5106428;28;20101;-91
2022/08/19 07:46:48;;;;;;;9.05;5.93;;;20.60;99.90;;;;;;5090525;28;20050;-90
2022/08/19 07:49:18;;;;;;;8.50;5.95;;;20.60;99.90;;;;;;5072051;28;20479;-90
2022/08/19 07:51:47;;;;;;;8.75;5.53;;;20.80;99.90;;;;;;5073174;28;20039;-92
2022/08/19 07:54:13;;;;;;;8.57;5.70;;;20.90;99.90;;;;;;5089578;28;20040;-90
2022/08/19 07:56:39;;;;;;;9.07;5.35;;;21.00;99.90;;;;;;5095304;28;20104;-90
2022/08/19 07:59:05;;;;;;;7.95;5.50;;;21.10;99.90;;;;;;5096693;28;20044;-90
2022/08/19 08:01:39;;;;;;;10.97;7.07;;;21.20;99.90;;;;;;5096787;28;20090;-90
2022/08/19 08:09:41;;;;;;;10.13;7.75;;;21.60;99.90;;;;;;5097783;28;20240;-90
2022/08/19 08:12:17;;;;;;;9.43;7.30;;;21.70;99.90;;;;;;5112434;28;20455;-90
2022/08/19 08:14:47;;;;;;;7.15;5.65;;;21.80;99.90;;;;;;5113037;28;20401;-90
2022/08/19 08:17:15;;;;;;;8.77;6.43;;;21.90;99.90;;;;;;5095408;28;20571;-90
2022/08/19 08:19:42;;;;;;;7.95;6.68;;;22.10;99.90;;;;;;5112812;28;20074;-91
2022/08/19 08:23:21;;;;;;;9.45;6.72;;;22.20;99.90;;;;;;5095961;28;20157;-91
2022/08/19 08:24:55;;;;;;;8.98;6.60;;;22.30;99.90;;;;;;5097382;28;20040;-91
2022/08/19 08:27:21;;;;;;;6.38;5.75;;;22.40;99.90;;;;;;5078801;28;20070;-90
2022/08/19 08:29:48;;;;;;;6.32;5.10;;;22.50;99.90;;;;;;5078501;28;20419;-92
2022/08/19 08:32:14;;;;;;;6.95;4.75;;;22.60;99.90;;;;;;5096055;28;20157;-92
2022/08/19 08:34:40;;;;;;;7.63;5.15;;;22.80;99.90;;;;;;5079647;28;20093;-91
2022/08/19 08:37:05;;;;;;;7.82;4.72;;;22.90;99.90;;;;;;5115492;27;20047;-92
2022/08/19 08:39:31;;;;;;;6.03;4.38;;;23.00;99.90;;;;;;5065610;27;20121;-90
2022/08/19 08:42:36;;;;;;;6.07;3.88;;;23.10;99.90;;;;;;5081733;28;20053;-92
2022/08/19 08:45:15;;;;;;;5.38;3.83;;;23.20;99.90;;;;;;5013988;28;20046;-91
2022/08/19 08:47:46;;;;;;;5.63;4.55;;;23.40;99.90;;;;;;5106351;28;20121;-91
2022/08/19 08:50:35;;;;;;;6.20;5.22;;;23.60;99.90;;;;;;5098477;28;20540;-92
2022/08/19 08:53:05;;;;;;;8.63;6.43;;;23.60;99.90;;;;;;5115826;28;20514;-91
2022/08/19 08:55:31;;;;;;;7.32;6.63;;;23.60;99.90;;;;;;5081782;28;20077;-92
2022/08/19 08:58:15;;;;;;;9.00;6.68;;;23.70;99.90;;;;;;5098896;28;20054;-93
2022/08/19 09:00:45;;;;;;;11.30;6.65;;;23.80;99.90;;;;;;5098339;28;20524;-91
2022/08/19 09:03:26;;;;;;;9.20;7.22;;;23.90;99.90;;;;;;5098743;28;20040;-93
2022/08/19 09:06:12;;;;;;;8.25;6.20;;;23.90;99.90;;;;;;5109645;28;20488;-91
2022/08/19 09:08:57;;;;;;;9.52;6.55;;;23.90;99.90;;;;;;5092035;28;20047;-92
2022/08/19 09:11:41;;;;;;;8.27;5.65;;;24.00;99.90;;;;;;5109448;28;20043;-92
2022/08/19 09:14:34;;;;;;;7.95;5.07;;;24.20;99.90;;;;;;5109564;28;20520;-92
2022/08/19 09:17:03;;;;;;;6.60;5.85;;;24.30;99.90;;;;;;5108075;28;20043;-93
2022/08/19 09:19:29;;;;;;;6.53;5.13;;;24.40;99.90;;;;;;5075858;28;20581;-92
2022/08/19 09:21:56;;;;;;;8.30;6.32;;;24.60;99.90;;;;;;5093459;27;20435;-93
2022/08/19 09:24:21;;;;;;;6.00;5.30;;;24.70;99.90;;;;;;5079230;27;20047;-93
2022/08/19 09:26:47;;;;;;;7.50;6.32;;;24.80;99.90;;;;;;5096028;27;20035;-94
2022/08/19 09:29:13;;;;;;;7.97;5.97;;;24.80;99.90;;;;;;5095529;27;20043;-92
2022/08/19 09:31:39;;;;;;;6.07;5.43;;;25.40;99.90;;;;;;5097218;27;20078;-93
2022/08/19 09:34:05;;;;;;;7.80;6.22;;;24.90;99.90;;;;;;5078180;27;20543;-92
2022/08/19 09:36:35;;;;;;;8.38;6.72;;;25.00;99.90;;;;;;5096276;27;20051;-92
2022/08/19 09:39:03;;;;;;;7.65;6.28;;;25.10;99.90;;;;;;5079200;27;20054;-93
2022/08/19 09:41:29;;;;;;;7.35;6.63;;;25.10;99.90;;;;;;5112677;27;20035;-91
2022/08/19 09:43:56;;;;;;;6.93;5.88;;;25.20;99.90;;;;;;5062673;27;20039;-93
2022/08/19 09:46:25;;;;;;;9.63;6.30;;;25.20;99.90;;;;;;5094469;27;20035;-92
2022/08/19 09:48:52;;;;;;;8.55;5.93;;;25.30;99.90;;;;;;5113685;27;20049;-92
2022/08/19 09:51:24;;;;;;;6.65;5.93;;;25.40;99.90;;;;;;5078616;27;20043;-93
2022/08/19 09:53:53;;;;;;;7.72;6.65;;;25.50;99.90;;;;;;5113024;27;20055;-94
2022/08/19 09:56:20;;;;;;;7.50;6.10;;;25.50;99.90;;;;;;5095734;27;20327;-92
2022/08/19 09:58:46;;;;;;;6.32;5.65;;;25.50;99.90;;;;;;5115013;27;20112;-92
2022/08/19 10:01:22;;;;;;;6.80;5.15;;;25.60;99.90;;;;;;5123272;27;20515;-92
2022/08/19 10:03:54;;;;;;;6.82;6.07;;;25.70;99.90;;;;;;5098501;27;20051;-93
2022/08/19 10:06:22;;;;;;;;;;;25.80;99.90;;;;;;5096299;27;20046;-93
2022/08/19 10:08:48;;;;;;;6.88;5.82;;;25.80;99.90;;;;;;5111507;27;20320;-93
2022/08/19 10:11:15;;;;;;;8.60;7.03;;;25.90;99.90;;;;;;5096781;27;20104;-92
2022/08/19 10:13:43;;;;;;;7.38;5.82;;;26.00;99.90;;;;;;5098033;27;20051;-92
2022/08/19 10:16:13;;;;;;;6.68;6.05;;;26.00;99.90;;;;;;5095486;27;20087;-92
2022/08/19 10:18:43;;;;;;;10.30;7.05;;;26.10;99.90;;;;;;5098508;27;20053;-92
2022/08/19 10:21:14;;;;;;;8.38;7.57;;;26.00;99.90;;;;;;5095375;27;20585;-93
2022/08/19 10:23:45;;;;;;;8.25;7.40;;;26.20;99.90;;;;;;5095898;27;20050;-94
2022/08/19 10:26:16;;;;;;;6.53;5.68;;;26.30;99.90;;;;;;5110662;27;20490;-94
2022/08/19 10:28:42;;;;;;;7.18;6.35;;;26.50;99.90;;;;;;5095875;27;20092;-93
2022/08/19 10:31:11;;;;;;;6.95;5.47;;;26.60;99.90;;;;;;5112260;27;20036;-92
2022/08/19 10:33:38;;;;;;;10.68;7.60;;;26.70;99.90;;;;;;5094186;27;20417;-93
2022/08/19 10:36:08;;;;;;;8.05;6.70;;;26.80;99.90;;;;;;5095121;27;20069;-92
2022/08/19 10:38:34;;;;;;;7.53;6.28;;;26.80;99.90;;;;;;5093226;27;20092;-91
2022/08/19 10:41:11;;;;;;;8.70;7.80;;;26.80;99.90;;;;;;5094722;27;20083;-92
2022/08/19 10:43:38;;;;;;;7.13;6.38;;;26.80;99.90;;;;;;5094200;27;20050;-93
2022/08/19 10:46:05;;;;;;;8.52;6.43;;;26.80;99.90;;;;;;5110948;27;20072;-93
2022/08/19 10:48:33;;;;;;;6.68;5.97;;;26.90;99.90;;;;;;5111391;27;20079;-93
2022/08/19 10:53:43;;;;;;;7.75;6.85;;;27.30;99.90;;;;;;5097060;27;20043;-91
2022/08/19 10:58:53;;;;;;;6.40;5.80;;;27.40;99.90;;;;;;5096372;27;20099;-92
2022/08/19 11:01:18;;;;;;;9.80;8.45;;;27.40;99.90;;;;;;5094697;27;20106;-92
2022/08/19 11:03:44;;;;;;;7.97;6.55;;;27.50;99.90;;;;;;5076018;27;20531;-92
2022/08/19 11:06:11;;;;;;;8.88;7.97;;;27.60;99.90;;;;;;5077903;27;20039;-92
2022/08/19 11:08:38;;;;;;;9.77;7.75;;;27.80;99.90;;;;;;5076137;27;20088;-91
2022/08/19 11:11:05;;;;;;;7.60;6.75;;;27.90;99.90;;;;;;5110869;27;20043;-91
2022/08/19 11:13:37;;;;;;;8.43;6.90;;;28.00;99.90;;;;;;5092955;27;20458;-92
2022/08/19 11:16:13;;;;;;;9.03;8.07;;;28.10;99.90;;;;;;5093595;27;20436;-90
2022/08/19 11:18:42;;;;;;;11.07;9.48;;;28.10;99.90;;;;;;5094129;27;20050;-92
2022/08/19 11:21:36;;;;;;;9.85;8.15;;;28.00;99.90;;;;;;5092535;27;20039;-91
2022/08/19 11:24:05;;;;;;;9.23;7.80;;;28.40;99.90;;;;;;5090791;27;20051;-92
2022/08/19 11:26:32;;;;;;;9.02;7.72;;;28.00;99.90;;;;;;5093480;27;20043;-94
2022/08/19 11:28:59;;;;;;;8.07;7.28;;;27.90;99.90;;;;;;5093286;27;20039;-92
2022/08/19 11:31:30;;;;;;;8.52;5.88;;;28.00;99.90;;;;;;5093922;27;20040;-91
2022/08/19 11:34:02;;;;;;;9.35;5.88;;;28.10;99.90;;;;;;5108982;27;20079;-92
2022/08/19 11:36:29;;;;;;;7.63;6.78;;;28.40;99.90;;;;;;5093454;27;20080;-91
2022/08/19 11:38:54;;;;;;;8.95;6.75;;;28.60;99.90;;;;;;5091823;27;20042;-92
2022/08/19 11:41:23;;;;;;;8.77;7.88;;;28.70;99.90;;;;;;5076896;27;20134;-93
2022/08/19 11:43:52;;;;;;;8.30;7.50;;;28.70;99.90;;;;;;5109063;28;20125;-90
2022/08/19 11:46:18;;;;;;;8.60;7.63;;;28.50;99.90;;;;;;5092284;27;20561;-91
2022/08/19 11:48:44;;;;;;;10.13;8.55;;;28.40;99.90;;;;;;5110576;27;20127;-91
2022/08/19 11:51:14;;;;;;;6.13;5.43;;;28.20;99.90;;;;;;5108405;27;20074;-91
2022/08/19 11:53:40;;;;;;;8.07;7.28;;;28.00;99.90;;;;;;5093640;27;20047;-91
2022/08/19 11:56:07;;;;;;;8.07;7.15;;;28.00;99.90;;;;;;5092497;27;20038;-92
2022/08/19 11:58:34;;;;;;;10.38;7.38;;;27.90;99.90;;;;;;5092897;27;20055;-91
2022/08/19 12:01:00;;;;;;;9.65;8.48;;;27.70;99.90;;;;;;5109870;27;20119;-91
2022/08/19 12:03:26;;;;;;;9.68;7.25;;;27.60;99.90;;;;;;5074941;27;20035;-91
2022/08/19 12:05:52;;;;;;;8.38;6.85;;;27.40;99.90;;;;;;5076466;27;20087;-92
2022/08/19 12:08:18;;;;;;;8.48;7.57;;;27.30;99.90;;;;;;5091985;27;20138;-92
2022/08/19 12:10:45;;;;;;;8.55;7.32;;;27.20;99.90;;;;;;5092761;27;20091;-92
2022/08/19 12:13:18;;;;;;;9.02;7.32;;;27.10;99.90;;;;;;5108710;27;20050;-92
2022/08/19 12:15:45;;;;;;;7.32;6.13;;;27.00;99.90;;;;;;5109505;27;20091;-93
2022/08/19 12:18:13;;;;;;;10.95;6.22;;;27.00;99.90;;;;;;5092846;27;20046;-92
2022/08/19 12:20:43;;;;;;;7.10;5.57;;;27.00;99.90;;;;;;5075673;27;20216;-92
2022/08/19 12:23:09;;;;;;;6.10;5.18;;;27.10;99.90;;;;;;5093218;27;20056;-92
2022/08/19 12:25:37;;;;;;;8.50;7.47;;;27.30;99.90;;;;;;5108333;27;20047;-92
2022/08/19 12:28:03;;;;;;;7.38;6.22;;;27.40;99.90;;;;;;5109736;27;20042;-91
2022/08/19 12:30:29;;;;;;;7.30;6.05;;;27.60;99.90;;;;;;5096158;27;20356;-90
2022/08/19 12:32:55;;;;;;;8.57;5.68;;;27.70;99.90;;;;;;5097906;28;20163;-92
2022/08/19 12:35:21;;;;;;;8.82;6.25;;;27.80;99.90;;;;;;5097736;28;20100;-91
2022/08/19 12:37:48;;;;;;;6.60;5.93;;;28.00;99.90;;;;;;5097373;28;20114;-91
2022/08/19 12:40:15;;;;;;;7.00;6.30;;;28.00;99.90;;;;;;5073859;28;20051;-90
2022/08/19 12:42:44;;;;;;;11.98;7.75;;;27.90;99.90;;;;;;5055609;28;20524;-91
2022/08/19 12:45:12;;;;;;;8.68;7.15;;;27.80;99.90;;;;;;5040303;28;20543;-91
2022/08/19 12:47:38;;;;;;;8.88;7.45;;;27.70;99.90;;;;;;5039485;28;20075;-91
2022/08/19 12:50:08;;;;;;;9.38;7.88;;;27.60;99.90;;;;;;5090333;28;20111;-91
2022/08/19 12:52:36;;;;;;;8.63;7.72;;;27.60;99.90;;;;;;5040305;28;20489;-93
2022/08/19 12:55:04;;;;;;;6.85;6.15;;;27.50;99.90;;;;;;5089822;28;20052;-91
2022/08/19 12:57:32;;;;;;;6.43;5.47;;;27.50;99.90;;;;;;5094975;28;20047;-90
2022/08/19 13:00:00;;;;;;;8.60;5.78;;;27.40;99.90;;;;;;5042445;28;20537;-92
2022/08/19 13:02:26;;;;;;;7.57;5.05;;;27.40;99.90;;;;;;5078090;28;20050;-92
2022/08/19 13:04:52;;;;;;;9.85;6.35;;;27.40;99.90;;;;;;5059788;28;20152;-91
2022/08/19 13:07:18;;;;;;;7.70;6.90;;;27.40;99.90;;;;;;5027079;28;20051;-92
2022/08/19 13:09:44;;;;;;;7.75;6.10;;;27.30;99.90;;;;;;5060255;28;20071;-91